• Join FlightAware (Why Join?)
  • Login
  • US Flag 
09:58AM EDT


 

Airport Tracker/Info


-or-


 

Live Flight TrackerFlight Track Log ✈ EJA982 ✈ 05-May-2013 ✈ KGPT - KJAX

Flight Track Log - Related Links

Times and Time Zones

All times are in EDT time to prevent confusion due to time zone crossing. See the EJA982 flight status page for this flight to view local times or setup timezone preferences in your user account.

Time Position Orientation Groundspeed Altitude Reporting Facility
EDT Latitude Longitude Course Direction KTS MPH feet Rate Location/Type
10:34AM 30.4331 -89.0831 86° East 213 245 2,400  Level Houston Center
10:35AM 30.4744 -89.0106 56° Northeast 305 351 7,100 3,660 Climbing Houston Center
10:36AM 30.5136 -88.9050 67° East 344 396 10,000 3,120 Climbing Houston Center
10:37AM 30.5608 -88.7831 66° East 394 453 13,600 3,120 Climbing Houston Center
10:38AM 30.6211 -88.6267 66° East 434 499 16,400 2,340 Climbing Houston Center
10:39AM 30.6731 -88.4917 66° East 454 522 18,500 2,040 Climbing Houston Center
10:40AM 30.7167 -88.3491 86° East  Level FlightAware Approximate
10:40AM 30.7222 -88.3522 68° East 467 537 20,600  Level Houston Center
10:41AM 30.7347 -88.1983 85° East 488 562 22,700 2,040 Climbing Houston Center
10:42AM 30.7458 -88.0361 85° East 493 567 24,900 2,040 Climbing Houston Center
10:44AM 30.7567 -87.8725 86° East 506 582 27,000 2,160 Climbing Houston Center
10:45AM 30.7672 -87.6792 86° East 503 579 29,400 2,280 Climbing Jacksonville Center
10:46AM 30.7800 -87.5081 85° East 513 590 31,600 1,800 Climbing Jacksonville Center
10:47AM 30.7903 -87.3344 86° East 525 604 33,000 660 Climbing Jacksonville Center
10:48AM 30.8008 -87.1489 86° East 552 635 33,000  Level Jacksonville Center
10:49AM 30.8114 -86.9536 86° East 578 665 33,000  Level Jacksonville Center
10:50AM 30.8258 -86.7558 85° East 600 690 33,000  Level Jacksonville Center
10:51AM 30.8256 -86.5550 90° East 608 700 33,000  Level Jacksonville Center
10:52AM 30.8206 -86.3614 92° East 608 700 33,000  Level Jacksonville Center
10:53AM 30.8153 -86.1678 92° East 608 700 33,000  Level Jacksonville Center
10:54AM 30.8097 -85.9739 92° East 608 700 33,000  Level Jacksonville Center
10:55AM 30.8075 -85.7997 91° East 608 700 33,000  Level Jacksonville Center
10:56AM 30.8033 -85.6086 91° East 602 693 33,000  Level Jacksonville Center
10:57AM 30.7989 -85.4175 92° East 597 687 33,000  Level Jacksonville Center
10:58AM 30.7942 -85.2264 92° East 587 676 33,000  Level Jacksonville Center
10:59AM 30.7661 -85.0419 100° East 587 676 33,000  Level Jacksonville Center
11:00AM 30.7125 -84.8714 110° East 568 654 33,000  Level Jacksonville Center
11:01AM 30.6608 -84.6917 108° East 568 654 33,000  Level Jacksonville Center
11:02AM 30.6383 -84.5078 98° East 573 659 33,000  Level Jacksonville Center
11:03AM 30.6136 -84.3047 98° East 573 659 33,000 -540 Level Jacksonville Center
11:04AM 30.5947 -84.1258 97° East 568 654 32,000 -1,980 Descending Jacksonville Center
11:05AM 30.5753 -83.9469 97° East 562 647 29,100 -2,940 Descending Jacksonville Center
11:06AM 30.5536 -83.7706 98° East 562 647 26,200 -2,580 Descending Jacksonville Center
11:07AM 30.5422 -83.6233 95° East 541 623 24,000 -1,140 Descending Jacksonville Center
11:08AM 30.5325 -83.4544 94° East 529 609 24,000 -960 Level Jacksonville Center
11:09AM 30.5289 -83.2928 91° East 513 590 22,100 -1,500 Descending Jacksonville Center
11:10AM 30.5231 -83.1264 92° East 513 590 21,000 -600 Descending Jacksonville Center
11:11AM 30.5192 -82.9650 92° East 513 590 21,000 -1,380 Level Jacksonville Center
11:12AM 30.5128 -82.8081 93° East 502 578 18,300 -2,580 Descending Jacksonville Center
11:13AM 30.5086 -82.6539 92° East 487 560 15,900 -2,520 Descending Jacksonville Center
11:13AM 30.5125 -82.5453 88° East 433 498 14,100 -2,220 Descending Jacksonville Center
11:14AM 30.5186 -82.5189 75° East 449 517 13,700 -2,400 Descending Jacksonville Center
11:14AM 30.5661 -82.3811 68° East 442 509 11,200 -1,380 Descending Jacksonville Center
11:15AM 30.5675 -82.2436 89° East 438 504 11,100 -60 Descending Jacksonville Center
11:17AM 30.5583 -82.1014 94° East 433 498 11,100 -240 Level Jacksonville Center
11:18AM 30.5533 -81.9783 93° East 418 481 10,700 -900 Descending Jacksonville Center
11:18AM 30.5483 -81.8697 93° East 324 373 9,400 -1,500 Descending Jacksonville Center
11:20AM 30.5539 -81.7636 86° East 299 344 7,700 -1,620 Descending Jacksonville Center
11:20AM 30.5614 -81.6792 84° East 286 329 6,200 -1,680 Descending Jacksonville Center
11:21AM 30.5336 -81.6000 112° Southeast 274 315 4,500 -1,560 Descending Jacksonville Center
11:22AM 30.4806 -81.5381 135° Southeast 252 290 3,100 -720 Descending Jacksonville Center
11:24AM 30.4406 -81.5047 144° Southeast 158 182 3,100 -60 Level Jacksonville Center
11:25AM 30.4014 -81.5439 221° Southwest 170 196 3,000 -600 Descending Jacksonville Center
11:26AM 30.4122 -81.5942 284° West 134 154 2,000 -840 Descending Jacksonville Center
11:26AM 30.4356 -81.6278 309° West 146 168 1,400 -780 Descending Jacksonville Center
11:28AM 30.4833 -81.6833 311° West  Level FlightAware Approximate
11:28AM 30.4653 -81.6658 311° West 144 166 500  Level Jacksonville Center
11:30AM 30.4833 -81.6833 311° West  Level FlightAware Approximate
11:37AM 30.4941 -81.6879 311° West  Level Estimated